createdAt,value
2022-11-12T00:01:52.464Z,99767.94
2022-11-12T00:04:38.594Z,99772.16
2022-11-12T00:07:24.747Z,99765.94
2022-11-12T00:10:11.169Z,99751.44
2022-11-12T00:12:57.364Z,99744.50
2022-11-12T00:15:43.288Z,99723.91
2022-11-12T00:18:31.706Z,99715.13
2022-11-12T00:21:18.127Z,99711.84
2022-11-12T00:24:04.312Z,99699.63
2022-11-12T00:26:50.206Z,99709.09
2022-11-12T00:29:36.131Z,99731.28
2022-11-12T00:32:22.060Z,99730.59
2022-11-12T00:35:12.479Z,99733.16
2022-11-12T00:38:00.854Z,99732.41
2022-11-12T00:40:46.927Z,99722.25
2022-11-12T00:43:33.313Z,99727.22
2022-11-12T00:46:19.173Z,99729.09
2022-11-12T00:49:05.312Z,99721.34
2022-11-12T00:51:51.763Z,99733.38
2022-11-12T00:54:37.380Z,99739.38
2022-11-12T00:57:23.726Z,99716.28
2022-11-12T01:00:16.304Z,99736.22
2022-11-12T01:03:02.613Z,99736.16
2022-11-12T01:05:48.772Z,99730.09
2022-11-12T01:08:35.729Z,99726.72
2022-11-12T01:11:25.600Z,99696.06
2022-11-12T01:14:11.834Z,99704.44
2022-11-12T01:16:57.836Z,99700.19
2022-11-12T01:19:44.113Z,99698.34
2022-11-12T01:22:30.568Z,99699.16
2022-11-12T01:25:16.829Z,99696.69
2022-11-12T01:28:02.608Z,99690.69
2022-11-12T01:30:48.544Z,99693.13
2022-11-12T01:33:34.327Z,99691.47
2022-11-12T01:36:21.603Z,99690.69
2022-11-12T01:39:09.623Z,99689.81
2022-11-12T01:41:55.507Z,99679.22
2022-11-12T01:44:45.931Z,99679.81
2022-11-12T01:47:34.844Z,99675.53
2022-11-12T01:50:41.440Z,99668.16
2022-11-12T01:53:30.639Z,99666.97
2022-11-12T01:56:17.866Z,99666.16
2022-11-12T01:59:08.304Z,99682.41
2022-11-12T02:01:54.417Z,99668.72
2022-11-12T02:04:42.715Z,99676.47
2022-11-12T02:07:34.968Z,99675.75
2022-11-12T02:10:22.260Z,99669.66
2022-11-12T02:13:27.194Z,99661.84
2022-11-12T02:16:12.858Z,99647.25
2022-11-12T02:18:59.639Z,99650.88
2022-11-12T02:21:46.194Z,99641.25
2022-11-12T02:24:34.185Z,99644.00
2022-11-12T02:27:20.000Z,99633.44
2022-11-12T02:30:06.647Z,99632.09
2022-11-12T02:32:52.276Z,99617.38
2022-11-12T02:35:38.099Z,99615.69
2022-11-12T02:38:24.415Z,99618.88
2022-11-12T02:41:10.845Z,99625.81
2022-11-12T02:43:56.888Z,99613.84
2022-11-12T02:46:42.879Z,99610.56
2022-11-12T02:49:28.817Z,99603.88
2022-11-12T02:52:15.244Z,99605.53
2022-11-12T02:55:02.077Z,99602.91
2022-11-12T02:57:48.025Z,99622.72
2022-11-12T03:00:33.704Z,99611.56
2022-11-12T03:03:19.384Z,99611.84
2022-11-12T03:06:06.086Z,99614.41
2022-11-12T03:08:52.081Z,99599.84
2022-11-12T03:11:38.380Z,99609.44
2022-11-12T03:14:24.869Z,99611.28
2022-11-12T03:17:10.659Z,99593.47
2022-11-12T03:19:56.662Z,99613.16
2022-11-12T03:22:43.841Z,99602.00
2022-11-12T03:25:29.959Z,99586.00
2022-11-12T03:28:17.059Z,99575.56
2022-11-12T03:31:03.407Z,99571.34
2022-11-12T03:33:49.720Z,99563.78
2022-11-12T03:36:35.887Z,99551.88
2022-11-12T03:39:22.181Z,99566.44
2022-11-12T03:42:09.001Z,99571.59
2022-11-12T03:44:55.113Z,99571.59
2022-11-12T03:47:45.107Z,99574.31
2022-11-12T03:50:31.725Z,99578.59
2022-11-12T03:53:18.054Z,99584.59
2022-11-12T03:56:04.260Z,99584.75
2022-11-12T03:58:50.186Z,99565.25
2022-11-12T04:01:36.593Z,99567.91
2022-11-12T04:04:22.781Z,99571.34
2022-11-12T04:07:27.782Z,99566.28
2022-11-12T04:10:14.027Z,99561.16
2022-11-12T04:13:18.669Z,99552.59
2022-11-12T04:16:25.041Z,99539.84
2022-11-12T04:19:31.530Z,99528.69
2022-11-12T04:22:18.060Z,99540.63
2022-11-12T04:25:22.658Z,99551.84
2022-11-12T04:28:08.272Z,99528.66
2022-11-12T04:30:54.543Z,99538.91
2022-11-12T04:33:40.844Z,99524.38
2022-11-12T04:36:27.153Z,99534.88
2022-11-12T04:39:13.604Z,99539.06
2022-11-12T04:42:18.327Z,99541.81
2022-11-12T04:45:09.714Z,99547.06
2022-11-12T04:47:55.957Z,99526.63
2022-11-12T04:50:44.703Z,99527.47
2022-11-12T04:53:31.228Z,99524.78
2022-11-12T04:56:17.186Z,99527.47
2022-11-12T04:59:03.668Z,99517.19
2022-11-12T05:01:49.201Z,99515.25
2022-11-12T05:04:35.547Z,99514.53
2022-11-12T05:07:21.675Z,99510.34
2022-11-12T05:10:08.391Z,99508.53
2022-11-12T05:12:54.508Z,99512.84
2022-11-12T05:15:40.475Z,99518.16
2022-11-12T05:18:26.902Z,99512.06
2022-11-12T05:21:31.534Z,99481.09
2022-11-12T05:24:40.365Z,99508.53
2022-11-12T05:27:25.624Z,99518.19
2022-11-12T05:30:12.293Z,99514.81
2022-11-12T05:32:57.983Z,99510.63
2022-11-12T05:35:43.985Z,99516.75
2022-11-12T05:38:30.188Z,99514.13
2022-11-12T05:41:20.201Z,99515.91
2022-11-12T05:44:06.715Z,99501.53
2022-11-12T05:46:53.157Z,99505.06
2022-11-12T05:49:39.488Z,99499.88
2022-11-12T05:52:25.785Z,99505.75
2022-11-12T05:55:11.907Z,99498.09
2022-11-12T05:57:57.872Z,99494.00
2022-11-12T06:00:44.312Z,99498.41
2022-11-12T06:03:30.859Z,99509.69
2022-11-12T06:06:16.920Z,99491.84
2022-11-12T06:09:03.333Z,99500.56
2022-11-12T06:11:49.292Z,99504.88
2022-11-12T06:14:35.762Z,99507.56
2022-11-12T06:17:22.070Z,99497.28
2022-11-12T06:20:08.673Z,99498.25
2022-11-12T06:22:54.740Z,99504.38
2022-11-12T06:25:40.728Z,99487.13
2022-11-12T06:28:27.621Z,99485.53
2022-11-12T06:31:14.462Z,99473.41
2022-11-12T06:34:00.695Z,99483.88
2022-11-12T06:36:48.840Z,99470.22
2022-11-12T06:39:35.156Z,99478.19
2022-11-12T06:42:21.066Z,99481.69
2022-11-12T06:45:07.674Z,99497.16
2022-11-12T06:47:58.406Z,99485.22
2022-11-12T06:50:44.366Z,99491.41
2022-11-12T06:53:30.515Z,99477.81
2022-11-12T06:56:16.926Z,99470.81
2022-11-12T06:59:03.158Z,99467.44
2022-11-12T07:01:49.528Z,99460.53
2022-11-12T07:04:35.679Z,99446.81
2022-11-12T07:07:21.843Z,99435.72
2022-11-12T07:10:08.505Z,99447.31
2022-11-12T07:12:54.776Z,99439.88
2022-11-12T07:15:40.675Z,99446.22
2022-11-12T07:18:28.557Z,99436.03
2022-11-12T07:21:18.961Z,99426.66
2022-11-12T07:24:05.109Z,99405.13
2022-11-12T07:26:51.041Z,99391.41
2022-11-12T07:29:47.707Z,99392.16
2022-11-12T07:32:37.409Z,99386.34
2022-11-12T07:35:27.913Z,99372.72
2022-11-12T07:38:13.868Z,99382.34
2022-11-12T07:41:03.967Z,99366.19
2022-11-12T07:43:52.359Z,99370.34
2022-11-12T07:46:38.599Z,99362.38
2022-11-12T07:49:24.672Z,99353.72
2022-11-12T07:52:11.083Z,99366.53
2022-11-12T07:54:56.835Z,99359.66
2022-11-12T07:57:42.819Z,99361.28
2022-11-12T08:00:29.110Z,99357.91
2022-11-12T08:03:15.186Z,99358.06
2022-11-12T08:06:01.840Z,99349.50
2022-11-12T08:08:47.999Z,99371.16
2022-11-12T08:11:35.378Z,99353.09
2022-11-12T08:14:21.684Z,99353.09
2022-11-12T08:17:07.927Z,99340.31
2022-11-12T08:19:55.423Z,99329.31
2022-11-12T08:22:46.404Z,99323.78
2022-11-12T08:25:35.265Z,99308.09
2022-11-12T08:28:21.455Z,99320.97
2022-11-12T08:31:17.261Z,99313.47
2022-11-12T08:34:12.347Z,99293.72
2022-11-12T08:36:58.877Z,99291.34
2022-11-12T08:39:44.869Z,99283.59
2022-11-12T08:42:31.137Z,99282.00
2022-11-12T08:45:17.195Z,99280.16
2022-11-12T08:48:09.476Z,99275.03
2022-11-12T08:50:55.800Z,99263.97
2022-11-12T08:53:42.076Z,99268.31
2022-11-12T08:56:28.559Z,99269.13
2022-11-12T08:59:14.311Z,99262.03
2022-11-12T09:02:00.334Z,99257.16
2022-11-12T09:04:46.313Z,99236.53
2022-11-12T09:07:49.201Z,99236.53
2022-11-12T09:10:37.160Z,99218.44
2022-11-12T09:13:23.168Z,99222.66
2022-11-12T09:16:12.211Z,99224.28
2022-11-12T09:18:59.554Z,99222.47
2022-11-12T09:21:45.855Z,99213.81
2022-11-12T09:24:31.842Z,99201.97
2022-11-12T09:27:18.132Z,99198.63
2022-11-12T09:30:05.087Z,99190.13
2022-11-12T09:32:58.154Z,99181.53
2022-11-12T09:35:45.692Z,99168.63
2022-11-12T09:38:31.854Z,99173.03
2022-11-12T09:41:20.287Z,99164.59
2022-11-12T09:44:19.612Z,99162.19
2022-11-12T09:47:23.347Z,99146.66
2022-11-12T09:50:27.514Z,99143.03
2022-11-12T09:53:22.367Z,99117.00
2022-11-12T09:56:12.887Z,99121.22
2022-11-12T09:58:59.388Z,99109.94
2022-11-12T10:02:19.442Z,99129.88
2022-11-12T10:05:29.083Z,99106.81
2022-11-12T10:08:42.620Z,99108.38
2022-11-12T10:11:29.258Z,99093.56
2022-11-12T10:14:33.619Z,99091.28
2022-11-12T10:17:44.654Z,99096.41
2022-11-12T10:20:43.084Z,99089.50
2022-11-12T10:23:40.660Z,99079.13
2022-11-12T10:26:28.719Z,99091.19
2022-11-12T10:29:29.523Z,99081.59
2022-11-12T10:32:16.539Z,99081.59
2022-11-12T10:35:03.060Z,99081.56
2022-11-12T10:37:59.668Z,99079.94
2022-11-12T10:40:45.509Z,99075.59
2022-11-12T10:43:31.788Z,99069.53
2022-11-12T10:46:23.480Z,99083.28
2022-11-12T10:49:15.316Z,99066.25
2022-11-12T10:52:01.339Z,99063.56
2022-11-12T11:06:03.700Z,99042.94
2022-11-12T11:08:51.889Z,99041.06
2022-11-12T11:11:48.097Z,99027.22
2022-11-12T11:14:35.848Z,99013.22
2022-11-12T11:17:21.908Z,99023.44
2022-11-12T11:20:24.467Z,99018.22
2022-11-12T11:23:26.058Z,98997.38
2022-11-12T11:26:57.033Z,98971.81
2022-11-12T11:30:00.880Z,98981.81
2022-11-12T11:33:07.964Z,98975.84
2022-11-12T11:36:17.054Z,98954.34
2022-11-12T11:39:33.975Z,98948.25
2022-11-12T11:42:40.549Z,98930.97
2022-11-12T11:45:59.659Z,98936.25
2022-11-12T11:49:07.330Z,98929.16
2022-11-12T11:52:03.022Z,98929.88
2022-11-12T11:55:26.967Z,98919.75
2022-11-12T11:58:36.528Z,98900.78
2022-11-12T12:01:56.518Z,98887.22
2022-11-12T12:04:49.807Z,98889.44
2022-11-12T12:07:38.278Z,98898.78
2022-11-12T12:14:13.547Z,98891.19
2022-11-12T12:17:31.921Z,98868.91
2022-11-12T12:20:30.891Z,98865.47
2022-11-12T12:23:35.573Z,98860.34
2022-11-12T12:26:30.987Z,98842.16
2022-11-12T12:29:39.008Z,98850.84
2022-11-12T12:32:36.972Z,98836.19
2022-11-12T12:35:40.867Z,98830.22
2022-11-12T12:38:38.610Z,98821.63
2022-11-12T12:41:36.579Z,98819.91
2022-11-12T12:44:42.570Z,98800.19
2022-11-12T12:47:37.369Z,98806.19
2022-11-12T12:50:24.627Z,98808.00
2022-11-12T12:53:18.005Z,98787.47
2022-11-12T12:56:23.876Z,98791.13
2022-11-12T12:59:20.586Z,98783.34
2022-11-12T13:02:20.951Z,98779.19
2022-11-12T13:05:24.136Z,98758.63
2022-11-12T13:08:14.153Z,98754.38
2022-11-12T13:11:00.462Z,98754.34
2022-11-12T13:13:46.766Z,98766.47
2022-11-12T13:16:51.204Z,98767.50
2022-11-12T13:19:58.867Z,98758.13
2022-11-12T13:22:44.636Z,98738.38
2022-11-12T13:28:36.656Z,98759.06
2022-11-12T13:31:29.431Z,98753.19
2022-11-12T13:34:26.290Z,98736.06
2022-11-12T13:37:20.581Z,98738.66
2022-11-12T13:40:13.496Z,98744.66
2022-11-12T13:43:04.988Z,98727.47
2022-11-12T13:46:11.622Z,98726.81
2022-11-12T13:49:04.189Z,98756.72
2022-11-12T13:51:53.359Z,98761.88
2022-11-12T13:54:39.270Z,98766.22
2022-11-12T13:57:32.279Z,98773.09
2022-11-12T14:00:18.333Z,98773.91
2022-11-12T14:03:07.323Z,98768.78
2022-11-12T14:05:54.722Z,98764.44
2022-11-12T14:09:11.206Z,98771.44
2022-11-12T14:12:03.087Z,98767.94
2022-11-12T14:15:03.887Z,98760.28
2022-11-12T14:18:14.214Z,98757.72
2022-11-12T14:21:11.580Z,98767.16
2022-11-12T14:23:58.204Z,98747.41
2022-11-12T14:26:44.600Z,98758.50
2022-11-12T14:29:35.237Z,98757.69
2022-11-12T14:32:22.557Z,98753.44
2022-11-12T14:35:30.382Z,98756.97
2022-11-12T14:38:44.291Z,98763.81
2022-11-12T14:41:37.107Z,98773.25
2022-11-12T14:44:35.681Z,98772.34
2022-11-12T14:47:21.669Z,98779.31
2022-11-12T14:50:23.950Z,98783.47
2022-11-12T14:53:28.398Z,98772.34
2022-11-12T14:56:35.174Z,98781.78
2022-11-12T14:59:22.100Z,98789.50
2022-11-12T15:05:20.581Z,98774.13
2022-11-12T15:08:11.743Z,98772.41
2022-11-12T15:11:18.855Z,98767.28
2022-11-12T15:14:13.905Z,98763.06
2022-11-12T15:17:00.782Z,98763.00
2022-11-12T15:19:46.988Z,98761.34
2022-11-12T15:22:34.099Z,98737.25
2022-11-12T15:25:22.987Z,98762.31
2022-11-12T15:28:53.864Z,98764.09
2022-11-12T15:32:00.950Z,98754.63
2022-11-12T15:34:48.380Z,98763.97
2022-11-12T15:37:42.458Z,98764.03
2022-11-12T15:40:29.573Z,98768.25
2022-11-12T15:43:24.640Z,98769.19
2022-11-12T15:46:18.026Z,98768.31
2022-11-12T15:49:11.617Z,98758.88
2022-11-12T15:51:57.959Z,98758.88
2022-11-12T15:55:03.256Z,98772.75
2022-11-12T15:57:52.328Z,98772.72
2022-11-12T16:00:39.446Z,98759.03
2022-11-12T16:03:26.119Z,98751.28
2022-11-12T16:06:12.518Z,98749.56
2022-11-12T16:08:58.649Z,98745.19
2022-11-12T16:11:45.103Z,98742.59
2022-11-12T16:14:31.612Z,98748.59
2022-11-12T16:17:18.845Z,98747.78
2022-11-12T16:20:21.447Z,98754.69
2022-11-12T16:23:07.375Z,98761.59
2022-11-12T16:25:54.262Z,98759.97
2022-11-12T16:28:40.556Z,98765.13
2022-11-12T16:31:26.891Z,98770.28
2022-11-12T16:34:13.395Z,98772.91
2022-11-12T16:37:18.090Z,98753.09
2022-11-12T16:40:04.314Z,98765.19
2022-11-12T16:42:50.691Z,98766.91
2022-11-12T16:45:41.882Z,98777.25
2022-11-12T16:48:27.621Z,98768.72
2022-11-12T16:51:18.653Z,98771.41
2022-11-12T16:54:05.251Z,98767.13
2022-11-12T16:56:51.538Z,98769.72
2022-11-12T16:59:37.634Z,98757.75
2022-11-12T17:02:23.724Z,98755.16
2022-11-12T17:05:22.136Z,98760.31
2022-11-12T17:08:09.621Z,98765.31
2022-11-12T17:10:57.082Z,98753.19
2022-11-12T17:13:43.788Z,98768.63
2022-11-12T17:16:30.063Z,98776.28
2022-11-12T17:19:15.964Z,98784.00
2022-11-12T17:22:02.014Z,98791.69
2022-11-12T17:24:48.307Z,98788.25
2022-11-12T17:27:34.448Z,98795.94
2022-11-12T17:30:20.741Z,98814.03
2022-11-12T17:33:06.929Z,98819.28
2022-11-12T17:35:53.242Z,98815.00
2022-11-12T17:38:39.976Z,98817.63
2022-11-12T17:41:30.513Z,98814.16
2022-11-12T17:44:18.494Z,98805.47
2022-11-12T17:47:04.678Z,98822.81
2022-11-12T17:49:50.744Z,98828.66
2022-11-12T17:52:38.240Z,98816.53
2022-11-12T17:55:24.576Z,98809.72
2022-11-12T17:58:10.897Z,98821.69
2022-11-12T18:01:12.676Z,98822.63
2022-11-12T18:03:59.391Z,98823.50
2022-11-12T18:06:45.223Z,98815.69
2022-11-12T18:09:31.264Z,98816.53
2022-11-12T18:12:19.634Z,98822.53
2022-11-12T18:15:06.018Z,98824.13
2022-11-12T18:17:52.432Z,98832.63
2022-11-12T18:20:39.556Z,98805.97
2022-11-12T18:23:25.689Z,98828.25
2022-11-12T18:26:15.338Z,98823.03
2022-11-12T18:29:01.765Z,98826.38
2022-11-12T18:31:48.300Z,98828.00
2022-11-12T18:34:34.646Z,98833.22
2022-11-12T18:37:20.839Z,98821.19
2022-11-12T18:40:07.679Z,98816.84
2022-11-12T18:42:53.639Z,98830.56
2022-11-12T18:45:40.078Z,98852.06
2022-11-12T18:48:28.319Z,98835.66
2022-11-12T18:51:16.895Z,98819.38
2022-11-12T18:54:03.287Z,98843.34
2022-11-12T18:56:49.433Z,98834.69
2022-11-12T18:59:35.332Z,98844.00
2022-11-12T19:02:21.494Z,98859.38
2022-11-12T19:05:08.020Z,98863.59
2022-11-12T19:07:54.483Z,98857.56
2022-11-12T19:10:41.004Z,98868.72
2022-11-12T19:13:28.420Z,98890.16
2022-11-12T19:16:17.335Z,98883.44
2022-11-12T19:19:03.586Z,98916.22
2022-11-12T19:21:49.623Z,98901.00
2022-11-12T19:24:38.438Z,98902.78
2022-11-12T19:27:24.568Z,98916.69
2022-11-12T19:30:11.485Z,98918.44
2022-11-12T19:32:57.419Z,98908.16
2022-11-12T19:35:44.048Z,98919.38
2022-11-12T19:38:31.038Z,98921.13
2022-11-12T19:41:19.829Z,98912.59
2022-11-12T19:44:06.910Z,98913.44
2022-11-12T19:46:52.590Z,98922.97
2022-11-12T19:49:38.312Z,98913.47
2022-11-12T19:52:24.760Z,98921.13
2022-11-12T19:55:10.843Z,98913.31
2022-11-12T19:57:56.500Z,98906.44
2022-11-12T20:00:42.613Z,98909.00
2022-11-12T20:03:29.980Z,98921.91
2022-11-12T20:06:19.217Z,98915.03
2022-11-12T20:09:05.490Z,98920.28
2022-11-12T20:11:51.565Z,98920.19
2022-11-12T20:14:37.528Z,98928.00
2022-11-12T20:17:23.854Z,98918.50
2022-11-12T20:20:10.648Z,98910.75
2022-11-12T20:22:56.875Z,98916.69
2022-11-12T20:25:43.724Z,98905.50
2022-11-12T20:28:32.320Z,98919.25
2022-11-12T20:31:20.817Z,98903.72
2022-11-12T20:34:07.117Z,98913.06
2022-11-12T20:36:57.038Z,98907.78
2022-11-12T20:39:43.322Z,98912.81
2022-11-12T20:42:49.848Z,98915.38
2022-11-12T20:45:53.906Z,98917.78
2022-11-12T20:48:59.756Z,98881.50
2022-11-12T20:52:04.707Z,98889.88
2022-11-12T20:55:09.773Z,98900.91
2022-11-12T20:57:55.993Z,98914.59
2022-11-12T21:00:41.987Z,98912.63
2022-11-12T21:03:27.920Z,98908.34
2022-11-12T21:06:16.152Z,98901.44
2022-11-12T21:09:03.023Z,98898.78
2022-11-12T21:11:49.044Z,98896.13
2022-11-12T21:14:34.749Z,98897.72
2022-11-12T21:17:20.724Z,98897.66
2022-11-12T21:20:07.631Z,98904.56
2022-11-12T21:22:54.021Z,98907.88
2022-11-12T21:25:40.823Z,98901.84
2022-11-12T21:28:27.569Z,98914.56
2022-11-12T21:31:17.892Z,98913.69
2022-11-12T21:34:04.703Z,98911.97
2022-11-12T21:36:50.988Z,98914.44
2022-11-12T21:39:37.144Z,98915.28
2022-11-12T21:42:25.584Z,98919.59
2022-11-12T21:45:12.464Z,98928.16
2022-11-12T21:47:58.595Z,98936.69
2022-11-12T21:50:44.740Z,98922.13
2022-11-12T21:53:33.778Z,98930.69
2022-11-12T21:56:20.305Z,98925.59
2022-11-12T21:59:06.601Z,98929.94
2022-11-12T22:01:52.414Z,98942.72
2022-11-12T22:04:38.498Z,98946.25
2022-11-12T22:07:24.427Z,98963.44
2022-11-12T22:10:10.513Z,98954.88
2022-11-12T22:13:24.727Z,98957.53
2022-11-12T22:16:07.469Z,98969.59
2022-11-12T22:18:54.961Z,98968.69
2022-11-12T22:21:41.232Z,98947.22
2022-11-12T22:24:27.106Z,98961.59
2022-11-12T22:27:13.088Z,98958.25
2022-11-12T22:29:58.924Z,98946.28
2022-11-12T22:32:44.843Z,98967.66
2022-11-12T22:35:30.582Z,98977.09
2022-11-12T22:38:16.804Z,98986.50
2022-11-12T22:41:05.278Z,98977.94
2022-11-12T22:43:54.417Z,98973.56
2022-11-12T22:46:40.311Z,98957.25
2022-11-12T22:49:26.090Z,98956.34
2022-11-12T22:52:12.307Z,98960.53
2022-11-12T22:54:58.563Z,98964.00
2022-11-12T22:57:44.377Z,98951.19
2022-11-12T23:00:32.034Z,98966.66
2022-11-12T23:03:17.996Z,98953.97
2022-11-12T23:06:06.265Z,98976.66
2022-11-12T23:08:56.824Z,98974.28
2022-11-12T23:11:43.130Z,98981.13
2022-11-12T23:14:29.253Z,98988.13
2022-11-12T23:17:15.509Z,98984.69
2022-11-12T23:20:01.162Z,98981.28
2022-11-12T23:22:47.020Z,98959.06
2022-11-12T23:25:34.063Z,98978.69
2022-11-12T23:28:20.294Z,98995.91
2022-11-12T23:31:14.761Z,98986.50
2022-11-12T23:34:00.807Z,98974.44
2022-11-12T23:36:46.847Z,98990.66
2022-11-12T23:39:33.049Z,98990.59
2022-11-12T23:42:18.986Z,98987.25
2022-11-12T23:45:05.446Z,98990.59
2022-11-12T23:47:51.607Z,98992.25
2022-11-12T23:50:37.804Z,98992.25
2022-11-12T23:53:23.380Z,98993.09
2022-11-12T23:56:12.935Z,98998.06
2022-11-12T23:58:58.834Z,99025.59
